Archival Weather

Greater Kankakee

Kankakee, Illinois (KIKK)

Report from: Tuesday, June 6, 2023 11:35 PM CDT
Current time: Tuesday, July 16, 2024 5:10 AM CDT

Current weather – Weather history – Daily summaries
Weather forecast

Temperature16.5°C (61.7°F)
Dew point9.5°C (49.1°F)
Winds 7 kts (3.6 m/s, 8.1 mph) Northeast (40°)
Visibility10 mi. (16.1 km)
Clouds Scattered clouds 12,000 ft. (3,658 m)
Altimeter29.92 in.Hg (1013 mB)
Relative humidity63 %
Density altitude347 ft. (106 m)
Remarks Fully automated report
Automated weather observing station with precipitation discriminator
Present weather sensor not operating
Flight conditions Visual Meteorological Conditions
Raw dataKIKK 070435Z AUTO 04007KT 10SM SCT120 17/10 A2992 RMK AO2 T01650095 PWINO
An error has occurred. This application may no longer respond until reloaded. Reload 🗙